Carlson, Washington
Current Conditions -  °F | °C
As of 1:58 AM on Thursday 23 Oct 2014 (Local Time) from KGRF Reporting Station
Drizzle Drizzle  
Wind Chill: 52°   Ceiling: 6000
Heat Index: 52°   Visibility: 10mi
Dew Point: 51°   Wind: 7mph
Humidity: 97%   Direction: 130°SE
Pressure: 29.73"   Gusts: NA
Location:  46.6944°N, 122.245°W
Report Text: KGRF 230858Z AUTO 13006KT 10SM DZ FEW037 SCT046 BKN060 BKN080 11/11 A2973 RMK AO2 SLP071 P0001 60001 T01130108 50018 $
Loading
Personal Weather Stations






























Interactive Weather Map New forecast layout! Learn more

10-Day Weather Forecast

Advertisements
Track Severe Weather on mobile